Time;durP1;ratioP1;P1;durP2;ratioP2;P2;SDS_P1;SDS_P2;PMS_P1;PMS_P2;Temp;Humidity;BMP_temperature;BMP_pressure;BME280_temperature;BME280_humidity;BME280_pressure;Samples;Min_cycle;Max_cycle;Signal;HPM_P1;HPM_P2
2021/04/29 00:02:08;;;;;;;10.97;7.03;;;;;;;;;;5038635;28;20450;-71
2021/04/29 00:04:36;;;;;;;10.50;7.93;;;;;;;;;;5037270;28;20548;-72
2021/04/29 00:07:06;;;;;;;13.90;7.23;;;;;;;;;;5038082;28;20494;-72
2021/04/29 00:09:34;;;;;;;11.07;7.00;;;;;;;;;;5030894;28;20861;-72
2021/04/29 00:12:01;;;;;;;8.60;6.43;;;;;;;;;;5032125;28;20469;-71
2021/04/29 00:14:39;;;;;;;13.50;7.17;;;;;;;;;;5037749;28;20463;-72
2021/04/29 00:17:07;;;;;;;12.70;6.60;;;;;;;;;;5037795;28;20773;-72
2021/04/29 00:19:34;;;;;;;10.10;6.30;;;;;;;;;;5038049;28;21124;-72
2021/04/29 00:22:01;;;;;;;11.73;6.50;;;;;;;;;;5038245;28;20462;-71
2021/04/29 00:24:29;;;;;;;15.03;8.07;;;;;;;;;;5038393;28;20540;-72
2021/04/29 00:26:56;;;;;;;10.73;6.97;;;;;;;;;;5037905;28;20494;-72
2021/04/29 00:29:23;;;;;;;10.57;7.30;;;;;;;;;;5038193;28;20553;-72
2021/04/29 00:31:51;;;;;;;10.93;7.17;;;;;;;;;;5037614;28;20465;-71
2021/04/29 00:34:19;;;;;;;11.50;7.10;;;;;;;;;;5037294;28;20466;-71
2021/04/29 00:36:50;;;;;;;11.57;7.47;;;;;;;;;;5037590;28;20459;-71
2021/04/29 00:39:17;;;;;;;13.67;7.73;;;;;;;;;;5037776;28;20533;-71
2021/04/29 00:41:44;;;;;;;11.73;7.77;;;;;;;;;;5037569;28;20466;-71
2021/04/29 00:44:11;;;;;;;13.13;8.67;;;;;;;;;;5037285;28;20933;-71
2021/04/29 00:46:39;;;;;;;12.50;8.63;;;;;;;;;;5037456;28;20512;-71
2021/04/29 00:49:07;;;;;;;15.93;9.67;;;;;;;;;;5037045;28;20482;-71
2021/04/29 00:51:34;;;;;;;13.47;8.97;;;;;;;;;;5037599;28;20855;-70
2021/04/29 00:54:02;;;;;;;11.57;8.77;;;;;;;;;;5037823;28;20455;-71
2021/04/29 00:56:32;;;;;;;13.70;10.50;;;;;;;;;;5037606;28;20499;-71
2021/04/29 00:58:59;;;;;;;15.30;9.43;;;;;;;;;;5037218;28;20513;-72
2021/04/29 01:01:27;;;;;;;16.20;10.70;;;;;;;;;;5037024;28;20463;-71
2021/04/29 01:04:02;;;;;;;13.57;9.40;;;;;;;;;;5037239;28;20470;-70
2021/04/29 01:06:42;;;;;;;13.63;9.17;;;;;;;;;;5037482;28;20494;-70
2021/04/29 01:09:14;;;;;;;11.60;7.67;;;;;;;;;;5037417;28;20593;-70
2021/04/29 01:11:45;;;;;;;15.67;8.80;;;;;;;;;;5037227;28;20470;-71
2021/04/29 01:14:17;;;;;;;11.57;7.50;;;;;;;;;;5037056;28;20847;-72
2021/04/29 01:16:45;;;;;;;12.60;8.67;;;;;;;;;;5037043;28;20463;-72
2021/04/29 01:19:13;;;;;;;14.03;8.93;;;;;;;;;;5037014;28;20462;-71
2021/04/29 01:21:51;;;;;;;11.00;9.33;;;;;;;;;;5037090;28;20571;-71
2021/04/29 01:24:22;;;;;;;14.00;8.40;;;;;;;;;;5036948;28;20458;-71
2021/04/29 01:26:52;;;;;;;11.80;7.80;;;;;;;;;;5035411;28;20490;-71
2021/04/29 01:29:21;;;;;;;13.60;8.03;;;;;;;;;;5036768;28;20451;-72
2021/04/29 01:31:48;;;;;;;12.43;8.67;;;;;;;;;;5036422;28;20573;-71
2021/04/29 01:34:17;;;;;;;17.87;10.10;;;;;;;;;;5036433;28;21046;-71
2021/04/29 01:36:45;;;;;;;12.47;8.13;;;;;;;;;;5036737;28;20532;-72
2021/04/29 01:39:14;;;;;;;13.77;9.47;;;;;;;;;;5037072;28;20592;-71
2021/04/29 01:41:42;;;;;;;15.73;8.60;;;;;;;;;;5036611;28;20455;-71
2021/04/29 01:44:11;;;;;;;17.13;10.50;;;;;;;;;;5036311;28;20470;-71
2021/04/29 01:46:39;;;;;;;12.90;8.67;;;;;;;;;;5036944;28;20505;-71
2021/04/29 01:49:07;;;;;;;13.50;9.53;;;;;;;;;;5036469;28;20459;-70
2021/04/29 01:51:35;;;;;;;12.27;9.17;;;;;;;;;;5036579;28;20536;-71
2021/04/29 01:54:02;;;;;;;14.57;9.20;;;;;;;;;;5036875;28;20450;-71
2021/04/29 01:56:30;;;;;;;10.17;8.30;;;;;;;;;;5035515;28;20463;-71
2021/04/29 01:58:57;;;;;;;13.77;8.57;;;;;;;;;;5036781;28;20886;-71
2021/04/29 02:01:26;;;;;;;13.87;9.20;;;;;;;;;;5035134;28;20454;-70
2021/04/29 02:03:54;;;;;;;16.03;8.57;;;;;;;;;;5035935;28;20461;-71
2021/04/29 02:06:21;;;;;;;15.83;8.37;;;;;;;;;;5016822;28;20495;-71
2021/04/29 02:08:48;;;;;;;13.47;8.97;;;;;;;;;;5027242;28;20458;-71
2021/04/29 02:11:16;;;;;;;14.47;10.17;;;;;;;;;;5036162;28;20477;-70
2021/04/29 02:13:44;;;;;;;13.20;8.77;;;;;;;;;;5036087;28;20528;-71
2021/04/29 02:16:13;;;;;;;14.17;8.80;;;;;;;;;;5035107;28;20656;-71
2021/04/29 02:18:45;;;;;;;17.50;9.70;;;;;;;;;;5040379;28;20458;-70
2021/04/29 02:21:15;;;;;;;12.37;8.27;;;;;;;;;;5039707;28;20494;-70
2021/04/29 02:23:46;;;;;;;13.97;10.17;;;;;;;;;;5040278;28;20454;-71
2021/04/29 02:26:14;;;;;;;10.90;8.70;;;;;;;;;;5039933;28;20584;-71
2021/04/29 02:28:42;;;;;;;13.07;8.83;;;;;;;;;;5039889;28;20505;-71
2021/04/29 02:31:11;;;;;;;12.27;8.73;;;;;;;;;;5039935;28;20459;-71
2021/04/29 02:33:39;;;;;;;12.97;8.90;;;;;;;;;;5039873;28;20455;-71
2021/04/29 02:36:08;;;;;;;11.67;8.90;;;;;;;;;;5039726;28;20489;-70
2021/04/29 02:38:36;;;;;;;15.27;10.23;;;;;;;;;;5040030;28;20568;-70
2021/04/29 02:41:04;;;;;;;15.23;10.50;;;;;;;;;;5039359;28;20520;-71
2021/04/29 02:43:32;;;;;;;15.27;9.60;;;;;;;;;;5039787;28;20459;-71
2021/04/29 02:45:59;;;;;;;12.47;9.23;;;;;;;;;;5039374;28;20976;-70
2021/04/29 02:48:28;;;;;;;12.90;9.63;;;;;;;;;;5039601;28;20461;-73
2021/04/29 02:50:56;;;;;;;14.10;9.57;;;;;;;;;;5039116;28;20909;-69
2021/04/29 02:53:25;;;;;;;13.87;9.20;;;;;;;;;;5040215;28;20809;-71
2021/04/29 02:55:53;;;;;;;15.60;9.50;;;;;;;;;;5039532;28;20463;-71
2021/04/29 02:58:20;;;;;;;12.73;9.00;;;;;;;;;;5039794;28;20554;-70
2021/04/29 03:00:48;;;;;;;12.50;8.70;;;;;;;;;;5039135;28;20458;-70
2021/04/29 03:03:15;;;;;;;13.87;9.60;;;;;;;;;;5039309;28;20474;-71
2021/04/29 03:05:43;;;;;;;13.47;9.27;;;;;;;;;;5039856;28;20509;-70
2021/04/29 03:08:10;;;;;;;14.60;9.60;;;;;;;;;;5039338;28;20486;-71
2021/04/29 03:10:38;;;;;;;15.30;10.00;;;;;;;;;;5034047;28;20463;-71
2021/04/29 03:13:06;;;;;;;13.30;9.10;;;;;;;;;;5028900;28;20482;-71
2021/04/29 03:15:33;;;;;;;13.23;8.73;;;;;;;;;;5038896;28;20550;-72
2021/04/29 03:18:00;;;;;;;12.50;9.43;;;;;;;;;;5038969;28;20465;-72
2021/04/29 03:20:28;;;;;;;15.13;10.10;;;;;;;;;;5038449;28;20455;-72
2021/04/29 03:22:55;;;;;;;13.77;9.50;;;;;;;;;;5039568;28;20474;-72
2021/04/29 03:25:22;;;;;;;11.67;8.90;;;;;;;;;;5038770;28;20486;-72
2021/04/29 03:27:53;;;;;;;15.73;10.33;;;;;;;;;;5038902;28;20491;-72
2021/04/29 03:30:21;;;;;;;15.00;9.40;;;;;;;;;;5035344;28;20455;-72
2021/04/29 03:32:48;;;;;;;13.50;10.27;;;;;;;;;;5037024;28;20767;-72
2021/04/29 03:35:18;;;;;;;13.83;11.23;;;;;;;;;;5038873;28;20739;-72
2021/04/29 03:37:46;;;;;;;14.20;9.07;;;;;;;;;;5038589;28;20561;-71
2021/04/29 03:40:15;;;;;;;15.23;9.90;;;;;;;;;;5039038;28;20797;-72
2021/04/29 03:42:42;;;;;;;15.70;10.20;;;;;;;;;;5036824;28;20804;-72
2021/04/29 03:45:20;;;;;;;17.50;10.80;;;;;;;;;;5038448;28;20828;-72
2021/04/29 03:47:49;;;;;;;14.90;11.87;;;;;;;;;;5037713;28;20512;-72
2021/04/29 03:50:18;;;;;;;13.33;10.60;;;;;;;;;;5038804;28;20711;-72
2021/04/29 03:52:47;;;;;;;16.93;11.03;;;;;;;;;;5038238;28;20496;-73
2021/04/29 03:55:14;;;;;;;15.20;9.47;;;;;;;;;;5038706;28;20494;-72
2021/04/29 03:57:42;;;;;;;15.60;10.33;;;;;;;;;;5038157;28;20466;-72
2021/04/29 04:00:10;;;;;;;13.30;10.23;;;;;;;;;;5037949;28;20462;-72
2021/04/29 04:02:38;;;;;;;18.03;11.60;;;;;;;;;;5038456;28;20481;-73
2021/04/29 04:05:06;;;;;;;13.70;10.07;;;;;;;;;;5038672;28;20874;-72
2021/04/29 04:07:34;;;;;;;16.20;10.87;;;;;;;;;;5038062;28;20487;-72
2021/04/29 04:10:01;;;;;;;15.40;11.40;;;;;;;;;;5037276;28;20545;-72
2021/04/29 04:12:28;;;;;;;14.73;11.00;;;;;;;;;;5037288;28;20533;-73
2021/04/29 04:14:56;;;;;;;14.67;11.03;;;;;;;;;;5036888;28;20761;-72
2021/04/29 04:17:23;;;;;;;14.80;12.37;;;;;;;;;;5038117;28;20844;-72
2021/04/29 04:19:52;;;;;;;15.03;11.23;;;;;;;;;;5038119;28;20558;-72
2021/04/29 04:22:22;;;;;;;16.50;12.67;;;;;;;;;;5025700;28;20452;-73
2021/04/29 04:24:52;;;;;;;17.67;12.87;;;;;;;;;;5018897;28;20467;-72
2021/04/29 04:27:20;;;;;;;16.43;12.23;;;;;;;;;;5031343;28;20552;-73
2021/04/29 04:29:47;;;;;;;18.27;13.30;;;;;;;;;;5038010;28;20459;-72
2021/04/29 04:32:15;;;;;;;19.83;12.20;;;;;;;;;;5037568;28;20447;-72
2021/04/29 04:34:42;;;;;;;16.30;13.60;;;;;;;;;;5036973;28;20459;-72
2021/04/29 04:37:10;;;;;;;17.17;12.80;;;;;;;;;;5036906;28;20532;-72
2021/04/29 04:39:44;;;;;;;16.70;12.70;;;;;;;;;;5037515;28;20848;-72
2021/04/29 04:42:11;;;;;;;13.63;11.67;;;;;;;;;;5037571;28;20747;-73
2021/04/29 04:44:39;;;;;;;17.03;13.23;;;;;;;;;;5036810;28;20465;-72
2021/04/29 04:47:06;;;;;;;17.00;12.90;;;;;;;;;;5036548;28;20908;-72
2021/04/29 04:49:36;;;;;;;16.07;12.33;;;;;;;;;;5036903;28;20532;-72
2021/04/29 04:52:04;;;;;;;16.13;13.23;;;;;;;;;;5035692;28;20767;-73
2021/04/29 04:54:33;;;;;;;15.40;12.90;;;;;;;;;;5036780;28;20473;-72
2021/04/29 04:57:03;;;;;;;20.43;13.97;;;;;;;;;;5036561;28;20462;-73
2021/04/29 04:59:31;;;;;;;16.27;13.37;;;;;;;;;;5035834;28;20549;-73
2021/04/29 05:02:01;;;;;;;15.77;12.00;;;;;;;;;;5035594;28;20453;-73
2021/04/29 05:04:33;;;;;;;16.43;12.73;;;;;;;;;;5035781;28;20462;-73
2021/04/29 05:07:00;;;;;;;18.13;13.57;;;;;;;;;;5035565;28;21005;-72
2021/04/29 05:09:28;;;;;;;16.50;12.63;;;;;;;;;;5035240;28;20458;-73
2021/04/29 05:11:58;;;;;;;15.47;12.90;;;;;;;;;;5035759;28;20466;-72
2021/04/29 05:14:25;;;;;;;17.80;12.30;;;;;;;;;;5035162;28;20898;-72
2021/04/29 05:16:54;;;;;;;16.40;13.50;;;;;;;;;;5035070;28;20516;-71
2021/04/29 05:19:21;;;;;;;16.53;12.40;;;;;;;;;;5035692;28;20952;-71
2021/04/29 05:21:49;;;;;;;17.67;14.17;;;;;;;;;;5035605;28;20482;-72
2021/04/29 05:24:17;;;;;;;17.40;13.70;;;;;;;;;;5035705;28;20462;-72
2021/04/29 05:26:47;;;;;;;18.10;13.50;;;;;;;;;;5036516;28;20588;-73
2021/04/29 05:29:21;;;;;;;18.67;13.17;;;;;;;;;;5027825;28;20459;-73
2021/04/29 05:31:48;;;;;;;18.40;13.80;;;;;;;;;;5015902;28;20506;-72
2021/04/29 05:34:26;;;;;;;16.90;13.60;;;;;;;;;;5015221;28;20474;-74
2021/04/29 05:36:53;;;;;;;19.37;14.27;;;;;;;;;;5015381;28;20550;-71
2021/04/29 05:39:21;;;;;;;17.00;14.00;;;;;;;;;;5014941;28;20459;-71
2021/04/29 05:41:48;;;;;;;17.07;13.10;;;;;;;;;;5025043;28;20485;-72
2021/04/29 05:44:16;;;;;;;21.30;15.30;;;;;;;;;;5034649;28;20467;-72
2021/04/29 05:46:50;;;;;;;20.17;13.50;;;;;;;;;;5035650;28;21082;-73
2021/04/29 05:49:17;;;;;;;19.60;14.80;;;;;;;;;;5034758;28;20472;-71
2021/04/29 05:51:44;;;;;;;15.60;13.93;;;;;;;;;;5034072;28;20787;-73
2021/04/29 05:54:15;;;;;;;23.20;14.93;;;;;;;;;;5038075;28;20446;-72
2021/04/29 05:56:58;;;;;;;21.30;16.33;;;;;;;;;;5038875;28;20557;-72
2021/04/29 05:59:31;;;;;;;20.47;15.00;;;;;;;;;;5038802;28;20905;-72
2021/04/29 06:02:00;;;;;;;22.53;15.00;;;;;;;;;;5037251;28;20736;-72
2021/04/29 06:04:28;;;;;;;23.47;15.57;;;;;;;;;;5038168;28;20455;-73
2021/04/29 06:06:58;;;;;;;17.60;15.03;;;;;;;;;;5037146;28;20869;-71
2021/04/29 06:09:26;;;;;;;19.33;15.23;;;;;;;;;;5038459;28;20874;-72
2021/04/29 06:12:04;;;;;;;21.07;15.30;;;;;;;;;;5038245;28;20552;-73
2021/04/29 06:14:34;;;;;;;20.10;14.67;;;;;;;;;;5037920;28;20451;-73
2021/04/29 06:17:06;;;;;;;20.23;15.30;;;;;;;;;;5037828;28;20471;-73
2021/04/29 06:19:39;;;;;;;23.50;15.70;;;;;;;;;;5038424;28;20734;-73
2021/04/29 06:22:06;;;;;;;22.27;16.03;;;;;;;;;;5038446;28;20548;-73
2021/04/29 06:24:35;;;;;;;21.03;15.47;;;;;;;;;;5038290;28;20981;-72
2021/04/29 06:27:03;;;;;;;18.67;14.13;;;;;;;;;;5038634;28;20544;-72
2021/04/29 06:29:33;;;;;;;19.47;14.97;;;;;;;;;;5038669;28;20767;-72
2021/04/29 06:32:00;;;;;;;19.00;15.20;;;;;;;;;;5034820;28;20820;-72
2021/04/29 06:34:42;;;;;;;22.27;15.87;;;;;;;;;;5038563;28;20455;-72
2021/04/29 06:37:11;;;;;;;20.60;16.03;;;;;;;;;;5036640;28;20535;-72
2021/04/29 06:39:38;;;;;;;21.83;18.00;;;;;;;;;;5037564;28;20509;-72
2021/04/29 06:42:14;;;;;;;22.67;16.93;;;;;;;;;;5037532;28;20490;-72
2021/04/29 06:44:42;;;;;;;21.50;16.77;;;;;;;;;;5038242;28;20735;-72
2021/04/29 06:47:09;;;;;;;24.87;16.80;;;;;;;;;;5038192;28;20497;-72
2021/04/29 06:49:40;;;;;;;18.90;15.93;;;;;;;;;;5038045;28;20450;-73
2021/04/29 06:52:16;;;;;;;21.03;18.10;;;;;;;;;;5036811;28;20466;-71
2021/04/29 06:54:47;;;;;;;21.10;15.67;;;;;;;;;;5037386;28;20454;-71
2021/04/29 06:57:15;;;;;;;21.17;16.00;;;;;;;;;;5037396;28;21058;-72
2021/04/29 06:59:43;;;;;;;20.53;14.70;;;;;;;;;;5037102;28;20466;-72
2021/04/29 07:02:14;;;;;;;19.57;15.07;;;;;;;;;;5037061;28;20495;-72
2021/04/29 07:04:45;;;;;;;20.33;16.37;;;;;;;;;;5036500;28;20745;-72
2021/04/29 07:07:14;;;;;;;21.17;16.40;;;;;;;;;;5036561;28;20487;-72
2021/04/29 07:09:42;;;;;;;20.40;15.50;;;;;;;;;;5036237;28;20465;-72
2021/04/29 07:12:13;;;;;;;21.60;15.53;;;;;;;;;;5037246;28;20470;-73
2021/04/29 07:14:44;;;;;;;20.13;17.23;;;;;;;;;;5037533;28;20528;-73
2021/04/29 07:17:11;;;;;;;17.90;16.00;;;;;;;;;;5036925;28;20463;-73
2021/04/29 07:19:40;;;;;;;19.67;16.27;;;;;;;;;;5036362;28;20463;-72
2021/04/29 07:22:07;;;;;;;19.50;16.57;;;;;;;;;;5037250;28;20478;-72
2021/04/29 07:24:46;;;;;;;19.23;16.00;;;;;;;;;;5036534;28;20503;-73
2021/04/29 07:27:19;;;;;;;23.90;16.80;;;;;;;;;;5036710;28;20497;-73
2021/04/29 07:29:50;;;;;;;21.67;16.23;;;;;;;;;;5037371;28;20469;-72
2021/04/29 07:32:17;;;;;;;24.13;17.17;;;;;;;;;;5036561;28;20451;-72
2021/04/29 07:34:45;;;;;;;21.33;17.07;;;;;;;;;;5036658;28;20814;-72
2021/04/29 07:37:16;;;;;;;23.57;17.70;;;;;;;;;;5037937;28;20878;-72
2021/04/29 07:39:47;;;;;;;26.30;18.80;;;;;;;;;;5037430;28;20565;-72
2021/04/29 07:42:15;;;;;;;24.37;17.40;;;;;;;;;;5037076;28;20470;-72
2021/04/29 07:44:44;;;;;;;25.13;18.37;;;;;;;;;;5036462;28;20463;-72
2021/04/29 07:47:12;;;;;;;21.83;17.43;;;;;;;;;;5036307;28;20479;-72
2021/04/29 07:49:40;;;;;;;20.10;16.97;;;;;;;;;;5036196;28;20477;-72
2021/04/29 07:52:07;;;;;;;21.37;17.47;;;;;;;;;;5024384;28;20464;-73
2021/04/29 07:54:35;;;;;;;20.97;17.00;;;;;;;;;;5016793;28;20471;-73
2021/04/29 07:57:03;;;;;;;20.80;16.30;;;;;;;;;;5025335;28;20467;-72
2021/04/29 07:59:33;;;;;;;22.90;17.73;;;;;;;;;;5036333;28;20466;-72
2021/04/29 08:02:02;;;;;;;22.07;17.30;;;;;;;;;;5030953;28;20532;-72
2021/04/29 08:04:30;;;;;;;17.90;15.90;;;;;;;;;;5037454;28;20486;-71
2021/04/29 08:07:03;;;;;;;21.67;14.23;;;;;;;;;;5035987;28;20498;-72
2021/04/29 08:09:32;;;;;;;20.87;15.33;;;;;;;;;;5034472;28;20538;-72
2021/04/29 08:12:01;;;;;;;23.57;16.33;;;;;;;;;;5034874;28;20462;-73
2021/04/29 08:14:31;;;;;;;21.00;16.30;;;;;;;;;;5035455;28;20455;-72
2021/04/29 08:17:02;;;;;;;20.07;14.40;;;;;;;;;;5034820;28;20544;-72
2021/04/29 08:19:34;;;;;;;17.90;15.23;;;;;;;;;;5036103;28;20856;-72
2021/04/29 08:22:01;;;;;;;20.10;15.13;;;;;;;;;;5036177;28;20467;-72
2021/04/29 08:24:35;;;;;;;18.97;15.23;;;;;;;;;;5036152;28;20742;-72
2021/04/29 08:27:03;;;;;;;23.23;15.13;;;;;;;;;;5035089;28;20518;-72
2021/04/29 08:29:36;;;;;;;20.30;14.40;;;;;;;;;;5035050;28;20494;-71
2021/04/29 08:32:09;;;;;;;18.57;14.90;;;;;;;;;;5034438;28;20466;-71
2021/04/29 08:34:41;;;;;;;22.23;16.80;;;;;;;;;;5036245;28;20463;-71
2021/04/29 08:37:10;;;;;;;20.80;15.80;;;;;;;;;;5036978;28;20568;-72
2021/04/29 08:39:40;;;;;;;19.27;15.27;;;;;;;;;;5036803;28;20478;-71
2021/04/29 08:42:08;;;;;;;19.23;16.27;;;;;;;;;;5034597;28;20467;-72
2021/04/29 08:44:39;;;;;;;23.27;15.93;;;;;;;;;;5036717;28;20470;-72
2021/04/29 08:47:10;;;;;;;19.63;15.33;;;;;;;;;;5035965;28;20487;-72
2021/04/29 08:49:49;;;;;;;20.80;15.30;;;;;;;;;;5036080;28;20466;-71
2021/04/29 08:52:17;;;;;;;18.00;14.17;;;;;;;;;;5036548;28;20520;-74
2021/04/29 08:54:53;;;;;;;18.77;14.43;;;;;;;;;;5039068;28;20470;-72
2021/04/29 08:57:21;;;;;;;17.93;15.47;;;;;;;;;;5035700;28;20848;-72
2021/04/29 08:59:54;;;;;;;20.43;14.80;;;;;;;;;;5035945;28;20463;-73
2021/04/29 09:02:39;;;;;;;20.43;17.10;;;;;;;;;;5036309;28;20455;-73
2021/04/29 09:05:20;;;;;;;19.77;15.60;;;;;;;;;;5020292;28;20459;-72
2021/04/29 09:08:00;;;;;;;19.53;15.40;;;;;;;;;;5037059;28;20526;-73
2021/04/29 09:10:28;;;;;;;22.37;16.13;;;;;;;;;;5034890;28;20482;-71
2021/04/29 09:12:56;;;;;;;22.87;16.77;;;;;;;;;;5034409;28;20734;-71
2021/04/29 09:15:24;;;;;;;21.40;15.00;;;;;;;;;;5035211;28;20879;-72
2021/04/29 09:18:21;;;;;;;18.90;14.50;;;;;;;;;;5035033;28;20646;-73
2021/04/29 09:21:03;;;;;;;22.93;16.83;;;;;;;;;;5034089;28;20463;-73
2021/04/29 09:23:33;;;;;;;20.93;17.20;;;;;;;;;;5033749;28;20471;-73
2021/04/29 09:26:04;;;;;;;21.37;15.83;;;;;;;;;;5034382;28;20605;-72
2021/04/29 09:28:39;;;;;;;21.20;15.43;;;;;;;;;;5035588;28;20769;-71
2021/04/29 09:31:07;;;;;;;19.47;15.73;;;;;;;;;;5035392;28;20877;-72
2021/04/29 09:33:38;;;;;;;23.67;16.80;;;;;;;;;;5018859;28;20474;-72
2021/04/29 09:36:07;;;;;;;21.57;16.73;;;;;;;;;;5015805;28;20462;-72
2021/04/29 09:38:36;;;;;;;22.90;16.43;;;;;;;;;;5021295;28;20497;-74
2021/04/29 09:41:32;;;;;;;23.90;17.37;;;;;;;;;;5035519;28;20463;-73
2021/04/29 09:44:09;;;;;;;20.10;16.83;;;;;;;;;;5034711;28;20450;-73
2021/04/29 09:46:46;;;;;;;23.00;17.20;;;;;;;;;;5034138;28;20886;-74
2021/04/29 09:49:20;;;;;;;23.67;18.73;;;;;;;;;;5035226;28;20459;-73
2021/04/29 09:51:48;;;;;;;23.53;18.97;;;;;;;;;;5014974;28;20577;-73
2021/04/29 09:54:35;;;;;;;25.90;18.67;;;;;;;;;;5015895;28;20474;-73
2021/04/29 09:57:06;;;;;;;23.60;17.50;;;;;;;;;;5016235;28;20559;-74
2021/04/29 09:59:40;;;;;;;22.33;18.80;;;;;;;;;;5015093;28;20539;-74
2021/04/29 10:02:07;;;;;;;23.63;17.47;;;;;;;;;;5013492;28;20919;-73
2021/04/29 10:04:35;;;;;;;23.40;17.20;;;;;;;;;;5014518;28;20527;-74
2021/04/29 10:07:12;;;;;;;23.80;18.50;;;;;;;;;;5014586;28;20736;-73
2021/04/29 10:09:40;;;;;;;29.70;21.73;;;;;;;;;;5014350;28;20846;-74
2021/04/29 10:12:11;;;;;;;30.33;23.37;;;;;;;;;;5014557;28;20452;-74
2021/04/29 10:14:40;;;;;;;27.07;21.40;;;;;;;;;;5014762;28;20448;-72
2021/04/29 10:17:14;;;;;;;28.23;20.30;;;;;;;;;;5015525;28;20919;-72
2021/04/29 10:19:45;;;;;;;22.07;19.00;;;;;;;;;;5016212;28;20864;-74
2021/04/29 10:22:16;;;;;;;22.97;17.20;;;;;;;;;;5015146;28;20868;-72
2021/04/29 10:24:44;;;;;;;26.30;18.63;;;;;;;;;;5016081;28;20470;-73
2021/04/29 10:27:16;;;;;;;22.43;19.03;;;;;;;;;;5015779;28;20480;-72
2021/04/29 10:29:50;;;;;;;23.60;18.10;;;;;;;;;;5017554;28;20914;-73
2021/04/29 10:32:17;;;;;;;26.63;19.83;;;;;;;;;;5015953;28;20491;-73
2021/04/29 10:34:47;;;;;;;22.07;18.53;;;;;;;;;;5017238;28;20727;-73
2021/04/29 10:37:16;;;;;;;23.47;17.27;;;;;;;;;;5016308;28;20462;-73
2021/04/29 10:40:03;;;;;;;20.83;16.77;;;;;;;;;;5018489;28;20464;-73
2021/04/29 10:42:32;;;;;;;24.30;16.80;;;;;;;;;;5019109;28;20451;-73
2021/04/29 10:45:10;;;;;;;21.90;16.70;;;;;;;;;;5018254;28;20471;-71
2021/04/29 10:47:40;;;;;;;23.43;19.03;;;;;;;;;;5029063;28;20482;-73
2021/04/29 10:50:20;;;;;;;22.40;17.70;;;;;;;;;;5022495;28;20455;-73
2021/04/29 10:52:55;;;;;;;22.03;17.53;;;;;;;;;;5037730;28;20472;-72
2021/04/29 10:55:37;;;;;;;25.90;18.10;;;;;;;;;;5038040;28;20455;-73
2021/04/29 10:58:13;;;;;;;20.37;15.03;;;;;;;;;;5035919;28;20459;-75
2021/04/29 11:00:56;;;;;;;21.13;16.53;;;;;;;;;;5029293;28;20452;-73
2021/04/29 11:03:32;;;;;;;19.00;15.00;;;;;;;;;;5018451;28;20460;-72
2021/04/29 11:06:10;;;;;;;20.80;14.90;;;;;;;;;;5022953;28;20542;-72
2021/04/29 11:08:48;;;;;;;19.73;14.50;;;;;;;;;;5018163;28;20492;-73
2021/04/29 11:11:23;;;;;;;20.70;15.43;;;;;;;;;;5025917;28;20482;-72
2021/04/29 11:13:58;;;;;;;21.13;15.80;;;;;;;;;;5029497;28;21094;-72
2021/04/29 11:16:30;;;;;;;18.77;16.50;;;;;;;;;;5021880;28;21172;-72
2021/04/29 11:18:58;;;;;;;18.50;14.60;;;;;;;;;;5017703;28;20448;-72
2021/04/29 11:21:28;;;;;;;19.33;14.40;;;;;;;;;;5018662;28;20514;-72
2021/04/29 11:24:02;;;;;;;18.10;14.47;;;;;;;;;;5035962;28;20874;-72
2021/04/29 11:26:38;;;;;;;18.20;15.30;;;;;;;;;;5037833;28;20509;-71
2021/04/29 11:29:10;;;;;;;21.20;15.63;;;;;;;;;;5036970;28;20518;-72
2021/04/29 11:31:43;;;;;;;19.30;14.80;;;;;;;;;;5037532;28;20471;-73
2021/04/29 11:34:10;;;;;;;24.07;17.00;;;;;;;;;;5027423;28;21018;-71
2021/04/29 11:36:38;;;;;;;21.23;16.13;;;;;;;;;;5037295;28;20742;-73
2021/04/29 11:39:09;;;;;;;18.70;15.23;;;;;;;;;;5036499;28;20577;-72
2021/04/29 11:41:40;;;;;;;17.77;14.33;;;;;;;;;;5037592;28;20509;-71
2021/04/29 11:44:08;;;;;;;18.80;14.30;;;;;;;;;;5037164;28;20729;-71
2021/04/29 11:46:40;;;;;;;20.57;14.97;;;;;;;;;;5037115;28;20929;-72
2021/04/29 11:49:19;;;;;;;18.67;14.70;;;;;;;;;;5028474;28;20586;-71
2021/04/29 11:51:48;;;;;;;19.97;15.60;;;;;;;;;;5017858;28;20758;-71
2021/04/29 11:54:18;;;;;;;19.70;15.27;;;;;;;;;;5038640;28;20498;-72
2021/04/29 11:56:46;;;;;;;21.83;15.77;;;;;;;;;;5037709;28;20462;-72
2021/04/29 11:59:19;;;;;;;19.70;14.97;;;;;;;;;;5036706;28;20899;-72
2021/04/29 12:02:05;;;;;;;19.13;15.13;;;;;;;;;;5038600;28;20471;-72
2021/04/29 12:04:33;;;;;;;19.60;15.83;;;;;;;;;;5038084;28;20458;-72
2021/04/29 12:07:05;;;;;;;19.17;15.10;;;;;;;;;;5036203;28;20450;-73
2021/04/29 12:09:35;;;;;;;19.33;15.93;;;;;;;;;;5037166;28;20447;-72
2021/04/29 12:12:18;;;;;;;21.97;16.77;;;;;;;;;;5030534;28;20470;-72
2021/04/29 12:15:05;;;;;;;19.33;15.63;;;;;;;;;;5017757;28;20555;-72
2021/04/29 12:17:37;;;;;;;17.60;14.07;;;;;;;;;;5025834;28;20455;-73
2021/04/29 12:20:07;;;;;;;17.70;13.90;;;;;;;;;;5036950;28;20883;-71
2021/04/29 12:22:35;;;;;;;20.50;16.17;;;;;;;;;;5039079;28;20769;-73
2021/04/29 12:25:19;;;;;;;18.30;15.57;;;;;;;;;;5037470;28;20466;-71
2021/04/29 12:27:52;;;;;;;17.70;14.00;;;;;;;;;;5035769;28;20490;-71
2021/04/29 12:30:37;;;;;;;19.33;15.57;;;;;;;;;;5036861;28;20463;-72
2021/04/29 12:33:20;;;;;;;17.23;14.73;;;;;;;;;;5037297;28;20455;-72
2021/04/29 12:35:49;;;;;;;18.30;15.47;;;;;;;;;;5036011;28;20478;-71
2021/04/29 12:38:24;;;;;;;19.00;15.47;;;;;;;;;;5037641;28;21102;-72
2021/04/29 12:41:06;;;;;;;17.43;14.47;;;;;;;;;;5036691;28;20536;-72
2021/04/29 12:43:35;;;;;;;19.00;14.37;;;;;;;;;;5035907;28;20530;-71
2021/04/29 12:46:05;;;;;;;17.87;13.87;;;;;;;;;;5025759;28;20553;-71
2021/04/29 12:48:40;;;;;;;17.00;14.63;;;;;;;;;;5016060;28;20570;-73
2021/04/29 12:51:12;;;;;;;21.20;14.07;;;;;;;;;;5016472;28;20455;-73
2021/04/29 12:53:43;;;;;;;18.80;14.43;;;;;;;;;;5015621;28;20466;-71
2021/04/29 12:56:24;;;;;;;20.77;13.70;;;;;;;;;;5018765;28;20474;-72
2021/04/29 12:58:59;;;;;;;16.97;12.67;;;;;;;;;;5033322;28;20852;-70
2021/04/29 13:01:29;;;;;;;15.50;13.00;;;;;;;;;;5031427;28;20474;-72
2021/04/29 13:03:59;;;;;;;16.17;12.57;;;;;;;;;;5035485;28;20454;-72
2021/04/29 13:06:28;;;;;;;16.57;12.20;;;;;;;;;;5035222;28;20470;-74
2021/04/29 13:09:04;;;;;;;16.50;13.70;;;;;;;;;;5022667;28;20538;-73
2021/04/29 13:11:43;;;;;;;16.63;13.17;;;;;;;;;;5015790;28;20526;-72
2021/04/29 13:14:14;;;;;;;17.43;14.07;;;;;;;;;;5015758;28;20458;-73
2021/04/29 13:16:45;;;;;;;15.03;12.30;;;;;;;;;;5028706;28;20461;-72
2021/04/29 13:19:15;;;;;;;15.03;12.70;;;;;;;;;;5033884;28;20461;-73
2021/04/29 13:21:55;;;;;;;15.00;12.53;;;;;;;;;;5033126;28;20713;-72
2021/04/29 13:24:24;;;;;;;14.87;11.67;;;;;;;;;;5033374;28;20871;-73
2021/04/29 13:27:13;;;;;;;14.77;11.70;;;;;;;;;;5034410;28;20493;-71
2021/04/29 13:29:42;;;;;;;15.50;13.37;;;;;;;;;;5031497;28;20463;-71
2021/04/29 13:32:12;;;;;;;14.67;12.83;;;;;;;;;;5018295;28;20463;-73
2021/04/29 13:34:41;;;;;;;15.57;12.50;;;;;;;;;;5014280;28;20443;-72
2021/04/29 13:37:16;;;;;;;15.57;12.70;;;;;;;;;;5015466;28;20467;-72
2021/04/29 13:40:07;;;;;;;12.93;10.97;;;;;;;;;;5015126;28;20894;-73
2021/04/29 13:42:49;;;;;;;13.03;10.10;;;;;;;;;;5012001;28;20915;-72
2021/04/29 13:45:20;;;;;;;12.83;11.43;;;;;;;;;;5014360;28;20474;-73
2021/04/29 13:47:50;;;;;;;12.80;10.47;;;;;;;;;;5013452;28;20487;-72
2021/04/29 13:50:25;;;;;;;15.73;11.37;;;;;;;;;;5014950;28;20512;-72
2021/04/29 13:52:53;;;;;;;12.10;10.10;;;;;;;;;;5014396;28;20950;-72
2021/04/29 13:55:28;;;;;;;14.60;11.07;;;;;;;;;;5015291;28;20537;-72
2021/04/29 13:58:10;;;;;;;15.57;12.60;;;;;;;;;;5015634;28;20463;-72
2021/04/29 14:00:50;;;;;;;12.07;9.77;;;;;;;;;;5013798;28;20491;-70
2021/04/29 14:03:20;;;;;;;15.93;12.20;;;;;;;;;;5015225;28;20791;-72
2021/04/29 14:05:54;;;;;;;18.70;14.13;;;;;;;;;;5015315;28;20462;-71
2021/04/29 14:08:25;;;;;;;14.73;13.03;;;;;;;;;;5014134;28;20495;-72
2021/04/29 14:10:55;;;;;;;12.80;10.37;;;;;;;;;;5015246;28;20772;-72
2021/04/29 14:13:25;;;;;;;14.00;12.27;;;;;;;;;;5016231;28;20478;-72
2021/04/29 14:15:54;;;;;;;14.83;11.97;;;;;;;;;;5019764;28;20491;-73
2021/04/29 14:18:28;;;;;;;13.70;10.97;;;;;;;;;;5019376;28;20517;-73
2021/04/29 14:21:05;;;;;;;15.60;11.97;;;;;;;;;;5037689;28;20864;-73
2021/04/29 14:23:43;;;;;;;16.40;12.00;;;;;;;;;;5038874;28;20553;-72
2021/04/29 14:26:15;;;;;;;12.40;11.10;;;;;;;;;;5038277;28;20941;-72
2021/04/29 14:28:56;;;;;;;13.63;11.80;;;;;;;;;;5039785;28;20820;-72
2021/04/29 14:31:28;;;;;;;13.20;10.33;;;;;;;;;;5038178;28;20546;-72
2021/04/29 14:33:57;;;;;;;12.63;10.17;;;;;;;;;;5039209;28;20635;-72
2021/04/29 14:36:26;;;;;;;14.50;12.50;;;;;;;;;;5039631;28;20462;-70
2021/04/29 14:38:57;;;;;;;13.37;11.17;;;;;;;;;;5028001;28;20478;-72
2021/04/29 14:41:31;;;;;;;14.30;11.53;;;;;;;;;;5027759;28;20450;-72
2021/04/29 14:44:22;;;;;;;13.10;11.17;;;;;;;;;;5037971;28;20458;-71